Time;durP1;ratioP1;P1;durP2;ratioP2;P2;SDS_P1;SDS_P2;PMS_P1;PMS_P2;Temp;Humidity;BMP_temperature;BMP_pressure;BME280_temperature;BME280_humidity;BME280_pressure;Samples;Min_cycle;Max_cycle;Signal;HPM_P1;HPM_P2
2021/12/02 00:01:48;;;;;;;3.70;1.52;;;8.70;99.90;;;;;;5076873;28;20200;-84
2021/12/02 00:04:15;;;;;;;3.17;0.75;;;8.70;99.90;;;;;;5068383;28;20231;-84
2021/12/02 00:06:42;;;;;;;2.88;0.90;;;8.60;99.90;;;;;;5068364;28;20211;-84
2021/12/02 00:09:09;;;;;;;4.05;1.05;;;8.60;99.90;;;;;;5068163;28;20217;-84
2021/12/02 00:11:35;;;;;;;3.08;0.95;;;8.60;99.90;;;;;;5068742;28;20260;-84
2021/12/02 00:14:08;;;;;;;2.83;0.73;;;8.60;99.90;;;;;;5068894;28;20237;-84
2021/12/02 00:16:38;;;;;;;3.67;0.95;;;8.60;99.90;;;;;;5068469;28;20223;-84
2021/12/02 00:21:54;;;;;;;3.20;1.10;;;8.50;99.90;;;;;;5067514;28;20194;-85
2021/12/02 00:24:24;;;;;;;2.40;0.80;;;8.60;99.90;;;;;;5067190;28;20307;-85
2021/12/02 00:26:52;;;;;;;3.35;1.10;;;8.40;99.90;;;;;;5066974;28;20215;-84
2021/12/02 00:29:22;;;;;;;2.97;0.90;;;8.40;99.90;;;;;;5066905;28;20305;-84
2021/12/02 00:31:50;;;;;;;2.28;0.70;;;8.30;99.90;;;;;;5066364;28;20208;-84
2021/12/02 00:34:20;;;;;;;2.63;0.80;;;8.30;99.90;;;;;;5066857;28;20220;-84
2021/12/02 00:36:47;;;;;;;2.85;1.00;;;8.30;99.90;;;;;;5067452;28;20239;-84
2021/12/02 00:39:16;;;;;;;2.30;0.70;;;8.30;99.90;;;;;;5068075;28;20207;-84
2021/12/02 00:41:44;;;;;;;2.97;0.80;;;8.30;99.90;;;;;;5075528;28;20200;-83
2021/12/02 00:44:11;;;;;;;3.50;1.17;;;8.20;99.90;;;;;;5073321;28;20235;-84
2021/12/02 00:46:39;;;;;;;3.60;1.00;;;8.20;99.90;;;;;;5066950;28;20209;-84
2021/12/02 00:49:12;;;;;;;2.30;0.80;;;8.00;99.90;;;;;;5069022;28;20218;-84
2021/12/02 00:51:41;;;;;;;4.78;1.05;;;8.20;99.90;;;;;;5070408;28;20200;-84
2021/12/02 00:54:10;;;;;;;4.35;1.30;;;8.10;99.90;;;;;;5066881;28;20298;-83
2021/12/02 00:56:38;;;;;;;3.25;0.90;;;8.00;99.90;;;;;;5067184;28;20287;-83
2021/12/02 00:59:07;;;;;;;2.95;0.90;;;7.70;99.90;;;;;;5069853;28;20207;-83
2021/12/02 01:01:35;;;;;;;4.57;0.95;;;8.00;99.90;;;;;;5073290;28;20270;-84
2021/12/02 01:04:07;;;;;;;2.53;0.75;;;7.90;99.90;;;;;;5069188;28;20250;-84
2021/12/02 01:06:34;;;;;;;2.83;0.93;;;7.90;99.90;;;;;;5067172;28;20229;-84
2021/12/02 01:09:04;;;;;;;2.60;0.98;;;7.80;99.90;;;;;;5066732;28;20238;-84
2021/12/02 01:11:30;;;;;;;2.70;0.90;;;7.90;99.90;;;;;;5066624;28;20312;-84
2021/12/02 01:13:57;;;;;;;2.47;0.73;;;7.60;99.90;;;;;;5064772;28;20224;-84
2021/12/02 01:16:24;;;;;;;2.95;1.20;;;7.90;99.90;;;;;;5065521;28;20239;-84
2021/12/02 01:18:51;;;;;;;3.65;1.20;;;8.00;99.90;;;;;;5071179;28;20237;-83
2021/12/02 01:21:21;;;;;;;3.40;1.20;;;8.00;99.90;;;;;;5072076;28;20294;-84
2021/12/02 01:23:52;;;;;;;3.00;1.23;;;8.00;99.90;;;;;;5067226;28;20321;-84
2021/12/02 01:26:20;;;;;;;2.30;0.80;;;8.00;99.90;;;;;;5067558;28;20222;-84
2021/12/02 01:28:50;;;;;;;3.15;1.20;;;8.00;99.90;;;;;;5066625;28;20208;-84
2021/12/02 01:31:18;;;;;;;2.40;0.80;;;8.00;99.90;;;;;;5060115;28;20527;-84
2021/12/02 01:33:47;;;;;;;2.45;0.88;;;8.00;99.90;;;;;;5059545;28;20223;-83
2021/12/02 01:36:14;;;;;;;3.10;1.00;;;8.00;99.90;;;;;;5058264;28;20283;-83
2021/12/02 01:39:12;;;;;;;3.15;1.20;;;8.00;99.90;;;;;;5060228;28;20212;-84
2021/12/02 01:41:47;;;;;;;3.10;0.77;;;7.90;99.90;;;;;;5061618;28;20242;-83
2021/12/02 01:44:16;;;;;;;2.95;0.95;;;7.90;99.90;;;;;;5067169;28;20665;-84
2021/12/02 01:46:43;;;;;;;5.75;0.88;;;7.90;99.90;;;;;;5066391;28;20291;-84
2021/12/02 01:49:12;;;;;;;2.60;1.02;;;7.90;99.90;;;;;;5065324;28;20210;-84
2021/12/02 01:55:08;;;;;;;2.40;0.82;;;7.90;99.90;;;;;;5063725;28;20336;-84
2021/12/02 01:57:41;;;;;;;7.50;0.88;;;8.00;99.90;;;;;;5055727;28;20681;-84
2021/12/02 02:00:14;;;;;;;3.17;0.93;;;7.90;99.90;;;;;;5061988;28;20259;-83
2021/12/02 02:02:41;;;;;;;3.65;1.10;;;7.60;99.90;;;;;;5073749;28;20222;-83
2021/12/02 02:05:12;;;;;;;2.88;1.42;;;7.90;99.90;;;;;;5068770;28;20233;-84
2021/12/02 02:07:44;;;;;;;3.60;1.05;;;7.90;99.90;;;;;;5066917;28;20203;-84
2021/12/02 02:10:11;;;;;;;4.35;0.95;;;7.80;99.90;;;;;;5067307;28;20187;-84
2021/12/02 02:12:39;;;;;;;3.40;0.93;;;7.90;99.90;;;;;;5065656;28;20217;-84
2021/12/02 02:15:07;;;;;;;3.38;0.90;;;7.90;99.90;;;;;;5064860;28;20219;-84
2021/12/02 02:17:40;;;;;;;4.78;0.75;;;7.70;99.90;;;;;;5065642;28;20314;-84
2021/12/02 02:20:10;;;;;;;5.68;1.23;;;7.40;99.90;;;;;;5064496;28;20225;-83
2021/12/02 02:22:39;;;;;;;2.97;1.00;;;7.50;99.90;;;;;;5065142;28;20191;-85
2021/12/02 02:25:12;;;;;;;3.00;1.02;;;7.50;99.90;;;;;;5068869;28;20234;-84
2021/12/02 02:27:39;;;;;;;2.60;0.80;;;7.50;99.90;;;;;;5068510;28;20186;-84
2021/12/02 02:30:10;;;;;;;7.43;0.98;;;7.40;99.90;;;;;;5068833;28;20206;-83
2021/12/02 02:32:37;;;;;;;4.15;1.00;;;7.40;99.90;;;;;;5069707;28;20277;-83
2021/12/02 02:35:07;;;;;;;3.85;0.73;;;7.40;99.90;;;;;;5068509;28;20223;-83
2021/12/02 02:37:35;;;;;;;2.40;0.77;;;7.30;99.90;;;;;;5071365;28;20276;-83
2021/12/02 02:40:07;;;;;;;3.55;0.80;;;7.40;99.90;;;;;;5070496;28;20293;-84
2021/12/02 02:42:34;;;;;;;4.57;0.93;;;7.50;99.90;;;;;;5071300;28;20213;-84
2021/12/02 02:45:01;;;;;;;2.38;0.70;;;7.20;99.90;;;;;;5071024;28;20246;-84
2021/12/02 02:47:28;;;;;;;2.95;0.70;;;7.30;99.90;;;;;;5068340;28;20261;-84
2021/12/02 02:49:56;;;;;;;4.25;0.80;;;7.20;99.90;;;;;;5067416;28;20226;-84
2021/12/02 02:52:23;;;;;;;3.65;0.93;;;7.10;99.90;;;;;;5067738;28;20207;-82
2021/12/02 02:54:51;;;;;;;3.40;0.80;;;7.10;99.90;;;;;;5069996;28;20296;-83
2021/12/02 02:57:23;;;;;;;2.35;0.60;;;7.10;99.90;;;;;;5068012;28;20206;-83
2021/12/02 03:00:03;;;;;;;2.55;0.73;;;7.20;99.90;;;;;;5067096;28;20206;-84
2021/12/02 03:02:35;;;;;;;3.70;0.88;;;7.30;99.90;;;;;;5066947;28;20237;-83
2021/12/02 03:05:11;;;;;;;4.00;0.88;;;7.20;99.90;;;;;;5069073;28;20230;-83
2021/12/02 03:07:45;;;;;;;3.65;0.70;;;7.30;99.90;;;;;;5070297;28;20225;-83
2021/12/02 03:10:16;;;;;;;2.50;0.60;;;7.20;99.90;;;;;;5066430;28;20206;-83
2021/12/02 03:12:56;;;;;;;4.03;0.82;;;7.30;99.90;;;;;;5067502;28;20202;-83
2021/12/02 03:18:09;;;;;;;2.67;1.02;;;7.20;99.90;;;;;;5069506;28;20190;-82
2021/12/02 03:20:36;;;;;;;2.90;0.80;;;7.20;99.90;;;;;;5072163;28;20206;-83
2021/12/02 03:23:03;;;;;;;4.28;0.90;;;7.20;99.90;;;;;;5072564;28;20213;-83
2021/12/02 03:25:30;;;;;;;2.72;0.90;;;6.90;99.90;;;;;;5071351;28;20223;-83
2021/12/02 03:27:59;;;;;;;2.85;1.08;;;7.10;99.90;;;;;;5069119;28;20206;-84
2021/12/02 03:30:26;;;;;;;2.90;1.13;;;6.90;99.90;;;;;;5066814;28;20682;-84
2021/12/02 03:32:53;;;;;;;2.78;1.30;;;6.80;99.90;;;;;;5065308;28;20207;-84
2021/12/02 03:35:20;;;;;;;4.70;1.00;;;6.60;99.90;;;;;;5065932;28;20301;-84
2021/12/02 03:37:47;;;;;;;2.40;0.88;;;6.70;99.90;;;;;;5065628;28;20238;-84
2021/12/02 03:40:14;;;;;;;2.60;0.85;;;6.70;99.90;;;;;;5065017;28;20551;-84
2021/12/02 03:42:49;;;;;;;2.40;0.80;;;6.80;99.90;;;;;;5066074;28;20234;-83
2021/12/02 03:45:17;;;;;;;4.25;0.70;;;6.80;99.90;;;;;;5070763;28;20316;-83
2021/12/02 03:47:44;;;;;;;6.22;0.90;;;6.70;99.90;;;;;;5063884;28;20206;-84
2021/12/02 03:50:11;;;;;;;4.10;0.93;;;6.90;99.90;;;;;;5063019;28;20238;-84
2021/12/02 03:52:38;;;;;;;2.92;0.60;;;6.90;99.90;;;;;;5063074;28;20225;-84
2021/12/02 03:55:05;;;;;;;4.25;1.10;;;6.70;99.90;;;;;;5063955;28;20322;-84
2021/12/02 03:57:32;;;;;;;2.50;0.90;;;6.70;99.90;;;;;;5063252;28;20203;-84
2021/12/02 03:59:59;;;;;;;3.10;1.00;;;6.60;99.90;;;;;;5067401;28;20558;-83
2021/12/02 04:02:28;;;;;;;2.72;0.95;;;6.60;99.90;;;;;;5071161;28;20268;-83
2021/12/02 04:04:54;;;;;;;4.47;0.77;;;6.50;99.90;;;;;;5072089;28;20265;-84
2021/12/02 04:07:25;;;;;;;3.90;1.25;;;7.00;99.90;;;;;;5070768;28;20269;-84
2021/12/02 04:09:52;;;;;;;2.60;0.90;;;7.00;99.90;;;;;;5072458;28;20281;-83
2021/12/02 04:12:23;;;;;;;3.15;1.05;;;7.10;99.90;;;;;;5068109;28;20274;-84
2021/12/02 04:14:55;;;;;;;5.97;1.00;;;7.00;99.90;;;;;;5064626;28;20226;-84
2021/12/02 04:17:29;;;;;;;3.25;1.05;;;6.90;99.90;;;;;;5064123;28;20196;-84
2021/12/02 04:19:57;;;;;;;3.45;1.05;;;6.90;99.90;;;;;;5063643;28;20208;-84
2021/12/02 04:22:24;;;;;;;3.17;0.95;;;6.90;99.90;;;;;;5063964;28;20547;-84
2021/12/02 04:24:51;;;;;;;3.40;0.90;;;6.70;99.90;;;;;;5059480;28;20230;-84
2021/12/02 04:27:18;;;;;;;4.78;1.30;;;6.80;99.90;;;;;;5071573;28;20215;-84
2021/12/02 04:29:45;;;;;;;3.30;0.98;;;6.70;99.90;;;;;;5065490;28;20282;-84
2021/12/02 04:32:11;;;;;;;4.40;1.20;;;6.90;99.90;;;;;;5066181;28;20305;-83
2021/12/02 04:34:38;;;;;;;2.70;0.90;;;6.70;99.90;;;;;;5065901;28;20250;-84
2021/12/02 04:37:06;;;;;;;5.45;0.90;;;6.90;99.90;;;;;;5065910;28;20206;-84
2021/12/02 04:39:33;;;;;;;2.42;0.77;;;6.80;99.90;;;;;;5066503;28;20221;-84
2021/12/02 04:42:00;;;;;;;2.78;1.02;;;6.70;99.90;;;;;;5066612;28;20274;-84
2021/12/02 04:44:27;;;;;;;3.05;0.90;;;6.80;99.90;;;;;;5090530;22;20254;-80
2021/12/02 04:46:54;;;;;;;2.50;0.98;;;6.80;99.90;;;;;;5063413;28;20293;-80
2021/12/02 04:49:20;;;;;;;2.95;0.77;;;6.80;99.90;;;;;;5063706;28;20373;-79
2021/12/02 04:51:47;;;;;;;2.53;0.85;;;7.00;99.90;;;;;;5062934;28;20207;-80
2021/12/02 04:54:16;;;;;;;3.30;0.98;;;6.90;99.90;;;;;;5061713;28;20218;-79
2021/12/02 04:56:42;;;;;;;2.47;0.70;;;6.90;99.90;;;;;;5063421;28;20235;-81
2021/12/02 04:59:09;;;;;;;2.80;0.80;;;7.00;99.90;;;;;;5062153;28;20207;-80
2021/12/02 05:01:36;;;;;;;2.30;0.90;;;7.10;99.90;;;;;;5062584;28;20214;-79
2021/12/02 05:04:03;;;;;;;3.10;1.00;;;6.90;99.90;;;;;;5061594;28;20217;-80
2021/12/02 05:06:30;;;;;;;3.25;0.90;;;7.10;99.90;;;;;;5062262;28;20208;-80
2021/12/02 05:08:57;;;;;;;3.38;0.90;;;7.20;99.90;;;;;;5063552;28;20214;-80
2021/12/02 05:11:26;;;;;;;4.63;0.93;;;7.00;99.90;;;;;;5064994;28;20586;-79
2021/12/02 05:13:52;;;;;;;4.72;1.25;;;7.20;99.90;;;;;;5061599;28;20215;-80
2021/12/02 05:16:19;;;;;;;3.40;1.00;;;6.90;99.90;;;;;;5060612;28;20224;-81
2021/12/02 05:18:46;;;;;;;3.58;0.90;;;6.90;99.90;;;;;;5061145;28;20297;-81
2021/12/02 05:21:13;;;;;;;3.13;1.13;;;7.00;99.90;;;;;;5060845;28;20635;-80
2021/12/02 05:23:40;;;;;;;5.03;1.02;;;7.10;99.90;;;;;;5060139;28;20289;-79
2021/12/02 05:26:07;;;;;;;3.83;0.80;;;7.20;99.90;;;;;;5063536;28;20248;-79
2021/12/02 05:28:35;;;;;;;2.70;0.90;;;7.10;99.90;;;;;;5060436;28;20290;-79
2021/12/02 05:31:02;;;;;;;3.42;0.80;;;7.20;99.90;;;;;;5060410;28;20206;-79
2021/12/02 05:33:29;;;;;;;3.53;1.10;;;7.20;99.90;;;;;;5060197;28;20222;-81
2021/12/02 05:35:56;;;;;;;2.80;0.90;;;7.10;99.90;;;;;;5059853;28;20364;-81
2021/12/02 05:38:23;;;;;;;4.00;0.98;;;7.20;99.90;;;;;;5060016;28;20228;-81
2021/12/02 05:40:50;;;;;;;8.32;1.15;;;7.00;99.90;;;;;;5061425;28;20275;-80
2021/12/02 05:43:17;;;;;;;3.05;1.00;;;7.00;99.90;;;;;;5063930;28;20229;-80
2021/12/02 05:45:45;;;;;;;5.82;1.10;;;6.90;99.90;;;;;;5062885;28;20298;-80
2021/12/02 05:48:12;;;;;;;3.17;1.08;;;7.00;99.90;;;;;;5058358;28;20218;-81
2021/12/02 05:50:39;;;;;;;3.38;1.00;;;7.10;99.90;;;;;;5060484;28;20637;-80
2021/12/02 05:53:06;;;;;;;3.03;1.10;;;7.00;99.90;;;;;;5062394;28;20222;-80
2021/12/02 05:55:33;;;;;;;4.75;1.00;;;7.00;99.90;;;;;;5063038;28;20222;-80
2021/12/02 05:57:59;;;;;;;3.42;1.05;;;6.80;99.90;;;;;;5062403;28;20288;-80
2021/12/02 06:00:26;;;;;;;3.03;1.00;;;7.00;99.90;;;;;;5063916;28;20310;-80
2021/12/02 06:02:54;;;;;;;5.93;1.02;;;7.10;99.90;;;;;;5064520;28;20211;-80
2021/12/02 06:05:21;;;;;;;5.15;1.27;;;7.00;99.90;;;;;;5062272;28;20323;-81
2021/12/02 06:07:50;;;;;;;2.88;0.80;;;7.00;99.90;;;;;;5062943;28;20206;-80
2021/12/02 06:10:18;;;;;;;2.83;0.95;;;6.90;99.90;;;;;;5063367;28;20298;-81
2021/12/02 06:12:45;;;;;;;3.75;1.23;;;7.00;99.90;;;;;;5062835;28;20320;-80
2021/12/02 06:15:12;;;;;;;4.70;1.13;;;7.20;99.90;;;;;;5063669;28;20230;-80
2021/12/02 06:17:40;;;;;;;4.75;1.30;;;7.00;99.90;;;;;;5063252;28;20202;-80
2021/12/02 06:20:10;;;;;;;3.80;1.10;;;6.90;99.90;;;;;;5062301;28;20222;-81
2021/12/02 06:22:37;;;;;;;3.38;0.80;;;6.80;99.90;;;;;;5061732;28;20231;-80
2021/12/02 06:25:44;;;;;;;2.92;1.17;;;6.80;99.90;;;;;;5062333;28;20226;-81
2021/12/02 06:28:05;;;;;;;4.53;1.10;;;6.90;99.90;;;;;;5062820;28;20214;-79
2021/12/02 06:30:33;;;;;;;2.85;1.35;;;6.90;99.90;;;;;;5062997;28;20207;-80
2021/12/02 06:33:00;;;;;;;4.05;1.50;;;7.00;99.90;;;;;;5064337;28;20213;-80
2021/12/02 06:35:28;;;;;;;3.15;1.20;;;6.80;99.90;;;;;;5063623;28;20318;-81
2021/12/02 06:37:55;;;;;;;3.00;0.90;;;6.90;99.90;;;;;;5062770;28;20270;-80
2021/12/02 06:40:22;;;;;;;4.75;1.10;;;6.80;99.90;;;;;;5063413;28;20238;-81
2021/12/02 06:42:49;;;;;;;3.53;1.27;;;6.90;99.90;;;;;;5066394;28;20282;-80
2021/12/02 06:45:16;;;;;;;3.65;1.02;;;6.40;99.90;;;;;;5059988;28;20302;-80
2021/12/02 06:47:43;;;;;;;2.65;0.90;;;6.50;99.90;;;;;;5060422;28;20226;-80
2021/12/02 06:50:16;;;;;;;3.10;0.90;;;6.30;99.90;;;;;;5059921;28;20213;-80
2021/12/02 06:52:44;;;;;;;5.15;0.90;;;6.40;99.90;;;;;;5060737;28;20633;-81
2021/12/02 06:55:12;;;;;;;6.10;2.40;;;6.40;99.90;;;;;;5059814;28;20750;-79
2021/12/02 06:57:39;;;;;;;2.60;0.90;;;6.50;99.90;;;;;;5058375;28;20210;-80
2021/12/02 07:00:09;;;;;;;5.72;2.15;;;6.30;99.90;;;;;;5069531;28;20214;-80
2021/12/02 07:02:37;;;;;;;6.65;1.80;;;6.40;99.90;;;;;;5065863;28;20270;-80
2021/12/02 07:05:04;;;;;;;5.22;1.30;;;6.30;99.90;;;;;;5058136;28;20240;-80
2021/12/02 07:07:35;;;;;;;5.85;1.58;;;6.40;99.90;;;;;;5058901;28;20217;-81
2021/12/02 07:10:04;;;;;;;5.07;1.50;;;6.30;99.90;;;;;;5058642;28;20194;-83
2021/12/02 07:12:32;;;;;;;4.53;1.80;;;6.40;99.90;;;;;;5059379;28;20202;-80
2021/12/02 07:15:05;;;;;;;3.55;1.50;;;6.50;99.90;;;;;;5058162;28;20222;-78
2021/12/02 07:17:33;;;;;;;5.70;1.40;;;6.50;99.90;;;;;;5056351;28;20187;-77
2021/12/02 07:20:01;;;;;;;2.95;1.20;;;6.40;99.90;;;;;;5056792;28;20194;-78
2021/12/02 07:22:28;;;;;;;3.97;1.33;;;6.30;99.90;;;;;;5056214;28;20210;-78
2021/12/02 07:24:55;;;;;;;6.38;1.52;;;6.40;99.90;;;;;;5054809;28;20222;-78
2021/12/02 07:27:23;;;;;;;6.60;1.45;;;6.20;99.90;;;;;;5058414;28;20565;-81
2021/12/02 07:29:50;;;;;;;4.10;1.40;;;6.40;99.90;;;;;;5058322;28;20202;-80
2021/12/02 07:32:17;;;;;;;2.72;1.10;;;6.40;99.90;;;;;;5059872;28;20208;-80
2021/12/02 07:34:45;;;;;;;3.90;1.48;;;6.30;99.90;;;;;;5059140;28;20225;-81
2021/12/02 07:37:15;;;;;;;6.13;2.05;;;6.40;99.90;;;;;;5060183;28;20761;-79
2021/12/02 07:39:43;;;;;;;3.60;1.38;;;6.50;99.90;;;;;;5058788;28;20727;-80
2021/12/02 07:42:10;;;;;;;3.08;0.98;;;6.30;99.90;;;;;;5058388;28;20209;-80
2021/12/02 07:44:38;;;;;;;3.67;1.15;;;6.20;99.90;;;;;;5058252;28;20269;-80
2021/12/02 07:47:07;;;;;;;3.33;1.15;;;6.30;99.90;;;;;;5057661;28;20205;-80
2021/12/02 07:49:34;;;;;;;2.70;1.00;;;6.30;99.90;;;;;;5057507;28;20221;-81
2021/12/02 07:52:03;;;;;;;3.30;1.13;;;6.30;99.90;;;;;;5057965;28;20296;-80
2021/12/02 07:54:32;;;;;;;3.03;1.00;;;6.20;99.90;;;;;;5058066;28;20291;-79
2021/12/02 07:57:00;;;;;;;3.10;1.20;;;6.30;99.90;;;;;;5060878;28;20210;-81
2021/12/02 07:59:27;;;;;;;3.25;1.50;;;6.40;99.90;;;;;;5060060;28;20228;-79
2021/12/02 08:02:00;;;;;;;5.13;2.15;;;6.40;99.90;;;;;;5058631;28;20217;-80
2021/12/02 08:04:28;;;;;;;2.95;1.23;;;6.40;99.90;;;;;;5059722;28;20234;-78
2021/12/02 08:06:55;;;;;;;6.07;1.77;;;6.50;99.90;;;;;;5065172;28;20240;-80
2021/12/02 08:09:22;;;;;;;4.60;1.48;;;6.40;99.90;;;;;;5072165;28;20210;-80
2021/12/02 08:11:49;;;;;;;7.65;1.65;;;6.60;99.90;;;;;;5073800;28;20650;-80
2021/12/02 08:14:17;;;;;;;3.40;1.60;;;6.60;99.90;;;;;;5063355;28;20313;-79
2021/12/02 08:16:44;;;;;;;3.47;1.48;;;6.60;99.90;;;;;;5063028;28;20201;-80
2021/12/02 08:19:13;;;;;;;4.53;1.25;;;6.60;99.90;;;;;;5063073;28;20234;-80
2021/12/02 08:21:40;;;;;;;3.28;1.67;;;6.70;99.90;;;;;;5063874;28;20202;-81
2021/12/02 08:24:07;;;;;;;5.93;2.15;;;6.70;99.90;;;;;;5062550;28;20217;-81
2021/12/02 08:26:34;;;;;;;14.85;9.20;;;6.70;99.90;;;;;;5061472;28;20233;-80
2021/12/02 08:29:01;;;;;;;5.50;2.05;;;6.70;99.90;;;;;;5062154;28;20317;-81
2021/12/02 08:31:28;;;;;;;5.38;1.90;;;7.00;99.90;;;;;;5063749;28;20210;-80
2021/12/02 08:33:55;;;;;;;6.35;1.63;;;6.90;99.90;;;;;;5067067;28;20297;-81
2021/12/02 08:36:26;;;;;;;4.20;1.90;;;6.80;99.90;;;;;;5072590;28;20237;-81
2021/12/02 08:38:53;;;;;;;4.47;1.85;;;6.80;99.90;;;;;;5073841;28;20202;-80
2021/12/02 08:41:21;;;;;;;6.20;2.05;;;7.00;99.90;;;;;;5070521;28;20211;-80
2021/12/02 08:43:48;;;;;;;6.07;2.78;;;6.80;99.90;;;;;;5064119;28;20214;-80
2021/12/02 08:46:18;;;;;;;4.88;1.65;;;7.00;99.90;;;;;;5061617;28;20561;-82
2021/12/02 08:48:47;;;;;;;3.88;1.75;;;6.80;99.90;;;;;;5061830;28;20229;-81
2021/12/02 08:51:14;;;;;;;3.70;1.30;;;7.10;99.90;;;;;;5061799;28;20541;-81
2021/12/02 08:53:42;;;;;;;4.20;1.50;;;7.10;99.90;;;;;;5061717;28;20209;-80
2021/12/02 08:56:09;;;;;;;4.88;2.15;;;7.20;99.90;;;;;;5060296;28;20237;-80
2021/12/02 08:58:38;;;;;;;4.70;1.50;;;7.20;99.90;;;;;;5061334;28;20298;-80
2021/12/02 09:01:05;;;;;;;3.83;1.77;;;7.20;99.90;;;;;;5060945;28;20683;-80
2021/12/02 09:03:33;;;;;;;5.00;1.75;;;7.20;99.90;;;;;;5060807;28;20573;-80
2021/12/02 09:06:00;;;;;;;7.38;1.70;;;7.30;99.90;;;;;;5059668;28;20226;-80
2021/12/02 09:08:26;;;;;;;4.50;1.50;;;7.10;99.90;;;;;;5060631;28;20278;-80
2021/12/02 09:10:56;;;;;;;3.75;1.60;;;7.30;99.90;;;;;;5061071;28;20294;-80
2021/12/02 09:13:23;;;;;;;3.40;1.45;;;7.30;99.90;;;;;;5063340;28;20235;-80
2021/12/02 09:15:50;;;;;;;4.82;1.83;;;7.30;99.90;;;;;;5061024;28;20258;-79
2021/12/02 09:18:17;;;;;;;8.27;3.17;;;7.20;99.90;;;;;;5060576;28;20199;-80
2021/12/02 09:20:44;;;;;;;4.40;1.88;;;7.30;99.90;;;;;;5068905;28;20730;-78
2021/12/02 09:23:13;;;;;;;8.23;1.88;;;7.50;99.90;;;;;;5069018;28;20218;-79
2021/12/02 09:25:40;;;;;;;3.13;1.33;;;7.20;99.90;;;;;;5061280;28;20235;-80
2021/12/02 09:28:08;;;;;;;4.03;1.38;;;7.30;99.90;;;;;;5060421;28;20212;-78
2021/12/02 09:30:36;;;;;;;3.75;1.60;;;7.30;99.90;;;;;;5059378;28;20321;-80
2021/12/02 09:33:03;;;;;;;3.55;1.50;;;7.40;99.90;;;;;;5059595;28;20275;-79
2021/12/02 09:35:30;;;;;;;3.55;1.65;;;7.50;99.90;;;;;;5059358;28;20219;-79
2021/12/02 09:37:56;;;;;;;3.42;1.70;;;7.70;99.90;;;;;;5060613;28;20229;-79
2021/12/02 09:40:23;;;;;;;4.60;1.77;;;7.70;99.90;;;;;;5060224;28;20245;-79
2021/12/02 09:42:50;;;;;;;3.08;1.17;;;7.70;99.90;;;;;;5060510;28;20557;-79
2021/12/02 09:45:19;;;;;;;5.95;1.48;;;7.80;99.90;;;;;;5059334;28;20243;-80
2021/12/02 09:47:48;;;;;;;3.95;1.90;;;7.90;99.90;;;;;;5062032;28;20694;-81
2021/12/02 09:50:20;;;;;;;3.10;1.40;;;7.90;99.90;;;;;;5071020;28;20212;-80
2021/12/02 09:52:47;;;;;;;4.07;1.20;;;8.00;99.90;;;;;;5072005;28;20188;-78
2021/12/02 09:55:24;;;;;;;3.70;1.38;;;8.10;99.90;;;;;;5070617;28;20231;-78
2021/12/02 09:57:55;;;;;;;3.05;1.13;;;8.10;99.90;;;;;;5068154;28;20637;-79
2021/12/02 10:00:36;;;;;;;2.47;0.98;;;8.10;99.90;;;;;;5068730;28;20191;-79
2021/12/02 10:03:05;;;;;;;4.00;1.20;;;8.20;99.90;;;;;;5066759;28;20635;-79
2021/12/02 10:05:38;;;;;;;5.72;1.35;;;8.20;99.90;;;;;;5061360;28;20227;-78
2021/12/02 10:08:07;;;;;;;3.40;1.10;;;8.00;99.90;;;;;;5068926;28;20194;-78
2021/12/02 10:10:39;;;;;;;3.72;1.38;;;8.10;99.90;;;;;;5070904;28;20211;-78
2021/12/02 10:13:17;;;;;;;3.25;1.38;;;8.20;99.90;;;;;;5067131;28;20260;-80
2021/12/02 10:16:01;;;;;;;2.75;1.15;;;7.70;99.90;;;;;;5062219;28;20248;-81
2021/12/02 10:18:37;;;;;;;2.95;0.80;;;7.40;99.90;;;;;;5060454;28;20200;-78
2021/12/02 10:21:16;;;;;;;2.90;0.90;;;7.20;99.90;;;;;;5061827;28;20178;-77
2021/12/02 10:23:46;;;;;;;3.35;1.30;;;6.60;99.90;;;;;;5060693;28;20237;-79
2021/12/02 10:26:13;;;;;;;5.85;1.13;;;6.70;99.90;;;;;;5059087;28;20330;-79
2021/12/02 10:28:42;;;;;;;3.67;1.38;;;6.70;99.90;;;;;;5062672;28;20202;-79
2021/12/02 10:31:17;;;;;;;3.83;1.70;;;6.70;99.90;;;;;;5062151;28;20561;-78
2021/12/02 10:33:49;;;;;;;3.75;1.40;;;6.60;99.90;;;;;;5060978;28;20202;-80
2021/12/02 10:36:29;;;;;;;2.85;1.10;;;6.50;99.90;;;;;;5059513;28;20218;-79
2021/12/02 10:38:59;;;;;;;2.95;1.50;;;6.40;99.90;;;;;;5060408;28;20194;-81
2021/12/02 10:41:28;;;;;;;5.07;1.60;;;6.40;99.90;;;;;;5059884;28;20289;-79
2021/12/02 10:44:11;;;;;;;3.53;1.45;;;6.60;99.90;;;;;;5059693;28;20295;-79
2021/12/02 10:46:42;;;;;;;3.63;1.55;;;6.80;99.90;;;;;;5059969;28;20301;-80
2021/12/02 10:49:15;;;;;;;3.22;1.20;;;6.70;99.90;;;;;;5058691;28;20197;-79
2021/12/02 10:51:46;;;;;;;3.20;1.33;;;6.80;99.90;;;;;;5059771;28;20217;-79
2021/12/02 10:54:15;;;;;;;3.97;1.50;;;6.80;99.90;;;;;;5061425;28;20190;-79
2021/12/02 10:56:45;;;;;;;3.20;1.50;;;6.60;99.90;;;;;;5061431;28;20298;-79
2021/12/02 10:59:32;;;;;;;4.05;1.10;;;6.40;99.90;;;;;;5059724;28;20251;-79
2021/12/02 11:02:03;;;;;;;3.20;1.50;;;6.80;99.90;;;;;;5058908;28;20278;-80
2021/12/02 11:04:37;;;;;;;3.88;1.90;;;6.60;99.90;;;;;;5059379;28;20297;-79
2021/12/02 11:07:09;;;;;;;8.45;2.40;;;6.80;99.90;;;;;;5059716;28;20211;-80
2021/12/02 11:09:36;;;;;;;3.10;1.30;;;6.80;99.90;;;;;;5059680;28;20646;-80
2021/12/02 11:12:09;;;;;;;2.53;0.77;;;6.70;99.90;;;;;;5061673;28;20230;-80
2021/12/02 11:14:36;;;;;;;2.92;0.95;;;6.80;99.90;;;;;;5058481;28;20230;-79
2021/12/02 11:17:12;;;;;;;3.65;0.85;;;6.80;99.90;;;;;;5058859;28;20202;-80
2021/12/02 11:19:39;;;;;;;3.13;1.10;;;6.60;99.90;;;;;;5059340;28;20233;-81
2021/12/02 11:22:09;;;;;;;3.33;1.05;;;6.50;99.90;;;;;;5058675;28;20206;-81
2021/12/02 11:24:36;;;;;;;2.20;0.60;;;6.50;99.90;;;;;;5059288;28;20226;-81
2021/12/02 11:27:12;;;;;;;5.47;1.35;;;6.50;99.90;;;;;;5057657;28;20316;-82
2021/12/02 11:29:55;;;;;;;4.38;1.10;;;6.50;99.90;;;;;;5057032;28;20273;-82
2021/12/02 11:32:56;;;;;;;2.28;0.60;;;6.30;99.90;;;;;;5057441;28;20270;-82
2021/12/02 11:35:32;;;;;;;2.40;0.70;;;6.80;99.90;;;;;;5050811;28;20257;-82
2021/12/02 11:38:03;;;;;;;2.83;0.82;;;6.60;99.90;;;;;;5057614;28;20186;-81
2021/12/02 11:40:32;;;;;;;3.28;1.30;;;6.50;99.90;;;;;;5059614;28;20290;-78
2021/12/02 11:42:59;;;;;;;2.63;1.00;;;6.50;99.90;;;;;;5070455;28;20199;-79
2021/12/02 11:45:28;;;;;;;2.75;1.00;;;6.60;99.90;;;;;;5063409;28;20230;-81
2021/12/02 11:47:56;;;;;;;2.55;0.90;;;6.70;99.90;;;;;;5061796;28;20236;-80
2021/12/02 11:50:26;;;;;;;2.50;1.10;;;6.60;99.90;;;;;;5061485;28;20206;-79
2021/12/02 11:52:53;;;;;;;4.65;1.50;;;6.50;99.90;;;;;;5062409;28;20196;-81
2021/12/02 11:55:22;;;;;;;3.65;0.82;;;6.30;99.90;;;;;;5061722;28;20248;-80
2021/12/02 11:57:50;;;;;;;2.90;1.20;;;6.60;99.90;;;;;;5067178;28;20218;-80
2021/12/02 12:00:21;;;;;;;3.00;1.10;;;7.00;99.90;;;;;;5074500;28;20206;-78
2021/12/02 12:02:53;;;;;;;4.30;1.38;;;7.00;99.90;;;;;;5073740;28;20194;-81
2021/12/02 12:05:26;;;;;;;3.05;1.23;;;6.80;99.90;;;;;;5062524;28;20230;-80
2021/12/02 12:07:53;;;;;;;3.72;1.40;;;7.00;99.90;;;;;;5061586;28;20587;-80
2021/12/02 12:10:25;;;;;;;3.58;0.80;;;6.70;99.90;;;;;;5062423;28;20292;-81
2021/12/02 12:12:53;;;;;;;2.95;1.10;;;6.90;99.90;;;;;;5061414;28;20198;-81
2021/12/02 12:15:40;;;;;;;5.10;2.05;;;7.00;99.90;;;;;;5061727;28;20317;-80
2021/12/02 12:18:08;;;;;;;3.33;1.55;;;6.80;99.90;;;;;;5061353;28;20223;-81
2021/12/02 12:21:02;;;;;;;5.53;1.20;;;6.70;99.90;;;;;;5061960;28;20214;-81
2021/12/02 12:23:48;;;;;;;3.72;1.10;;;6.80;99.90;;;;;;5065601;28;20229;-80
2021/12/02 12:26:21;;;;;;;3.15;1.30;;;6.70;99.90;;;;;;5064695;28;20283;-81
2021/12/02 12:29:28;;;;;;;3.60;1.20;;;7.00;99.90;;;;;;5062601;28;20324;-80
2021/12/02 12:32:35;;;;;;;3.10;1.20;;;6.90;99.90;;;;;;5061355;28;20665;-80
2021/12/02 12:35:07;;;;;;;2.60;1.08;;;7.20;99.90;;;;;;5061212;28;20230;-80
2021/12/02 12:37:55;;;;;;;3.33;1.42;;;7.30;99.90;;;;;;5061898;28;20609;-80
2021/12/02 12:40:41;;;;;;;3.30;1.30;;;7.40;99.90;;;;;;5071223;28;20214;-81
2021/12/02 12:43:36;;;;;;;4.45;1.63;;;7.50;99.90;;;;;;5070718;28;20192;-81
2021/12/02 12:46:22;;;;;;;3.55;1.70;;;7.40;99.90;;;;;;5063164;28;20304;-79
2021/12/02 12:48:50;;;;;;;3.78;1.67;;;7.40;99.90;;;;;;5062319;28;20202;-80
2021/12/02 12:51:20;;;;;;;4.15;1.33;;;7.40;99.90;;;;;;5062887;28;20211;-79
2021/12/02 12:53:50;;;;;;;3.35;1.52;;;7.30;99.90;;;;;;5061357;28;20680;-81
2021/12/02 12:56:19;;;;;;;3.08;1.23;;;7.30;99.90;;;;;;5062199;28;20316;-80
2021/12/02 12:59:00;;;;;;;3.47;1.60;;;7.40;99.90;;;;;;5060974;28;20264;-82
2021/12/02 13:01:28;;;;;;;2.88;1.17;;;7.30;99.90;;;;;;5060638;28;20230;-81
2021/12/02 13:04:08;;;;;;;3.80;1.10;;;7.20;99.90;;;;;;5061206;28;20190;-81
2021/12/02 13:07:04;;;;;;;3.35;1.52;;;7.20;99.90;;;;;;5060975;28;20304;-81
2021/12/02 13:09:56;;;;;;;2.90;1.17;;;6.90;99.90;;;;;;5060435;28;20206;-81
2021/12/02 13:12:47;;;;;;;2.97;1.23;;;7.40;99.90;;;;;;5060098;28;20202;-80
2021/12/02 13:15:18;;;;;;;3.40;1.40;;;7.30;99.90;;;;;;5058919;28;20745;-80
2021/12/02 13:17:47;;;;;;;5.57;1.30;;;7.40;99.90;;;;;;5060304;28;20184;-81
2021/12/02 13:20:18;;;;;;;4.32;1.50;;;7.50;99.90;;;;;;5060628;28;20206;-80
2021/12/02 13:22:45;;;;;;;3.80;1.80;;;7.40;99.90;;;;;;5060959;28;20273;-79